Time;durP1;ratioP1;P1;durP2;ratioP2;P2;SDS_P1;SDS_P2;PMS_P1;PMS_P2;Temp;Humidity;BMP_temperature;BMP_pressure;BME280_temperature;BME280_humidity;BME280_pressure;Samples;Min_cycle;Max_cycle;Signal;HPM_P1;HPM_P2
2023/08/05 00:08:18;;;;;;;;;;;;;;;;;;;;;
2023/08/05 00:11:25;;;;;;;12.00;4.03;;;;;;;;;;4996427;28;20103;-75
2023/08/05 00:17:41;;;;;;;10.95;4.40;;;;;;;;;;5030551;28;20505;-73
2023/08/05 00:20:12;;;;;;;9.85;4.15;;;;;;;;;;5049680;28;20434;-74
2023/08/05 00:47:28;;;;;;;12.90;4.50;;;;;;;;;;5062037;28;20036;-75
2023/08/05 00:54:11;;;;;;;7.03;4.20;;;;;;;;;;5010663;28;20045;-75
2023/08/05 00:57:22;;;;;;;10.43;4.50;;;;;;;;;;5049170;28;20029;-75
2023/08/05 01:00:24;;;;;;;11.10;5.05;;;;;;;;;;5030521;28;20099;-74
2023/08/05 01:04:31;;;;;;;9.13;4.57;;;;;;;;;;5048883;28;20041;-74
2023/08/05 01:07:02;;;;;;;8.52;4.60;;;;;;;;;;4970005;28;20054;-74
2023/08/05 01:09:36;;;;;;;11.88;5.00;;;;;;;;;;5010088;28;20439;-74
2023/08/05 01:12:49;;;;;;;9.55;4.43;;;;;;;;;;5049685;28;20118;-73
2023/08/05 01:21:55;;;;;;;8.20;3.88;;;;;;;;;;5051452;28;20561;-74
2023/08/05 01:24:29;;;;;;;6.22;3.67;;;;;;;;;;5033172;28;20037;-74
2023/08/05 01:26:56;;;;;;;7.10;4.20;;;;;;;;;;5025455;28;20029;-74
2023/08/05 01:29:23;;;;;;;6.47;4.47;;;;;;;;;;5033578;28;20112;-74
2023/08/05 01:31:51;;;;;;;8.70;4.72;;;;;;;;;;5035192;28;20036;-75
2023/08/05 01:34:17;;;;;;;8.65;4.53;;;;;;;;;;5069799;28;20052;-75
2023/08/05 01:36:44;;;;;;;10.15;5.07;;;;;;;;;;5053602;28;20033;-74
2023/08/05 01:39:10;;;;;;;10.32;4.43;;;;;;;;;;5036952;28;20024;-74
2023/08/05 01:41:37;;;;;;;7.10;4.15;;;;;;;;;;5036653;28;20045;-74
2023/08/05 01:44:03;;;;;;;6.30;4.25;;;;;;;;;;5036293;28;20029;-74
2023/08/05 01:46:30;;;;;;;6.72;4.35;;;;;;;;;;5036665;28;20040;-74
2023/08/05 01:48:56;;;;;;;7.15;4.28;;;;;;;;;;5036882;28;20080;-74
2023/08/05 01:51:23;;;;;;;5.97;4.18;;;;;;;;;;5053599;28;20028;-74
2023/08/05 01:53:48;;;;;;;5.75;3.78;;;;;;;;;;5053565;28;20016;-74
2023/08/05 01:56:15;;;;;;;5.63;3.92;;;;;;;;;;5036550;28;20091;-74
2023/08/05 01:58:41;;;;;;;9.60;4.45;;;;;;;;;;5036128;28;20024;-74
2023/08/05 02:01:07;;;;;;;4.93;3.92;;;;;;;;;;5034617;28;20033;-74
2023/08/05 02:03:33;;;;;;;7.20;4.32;;;;;;;;;;5053589;28;20035;-74
2023/08/05 02:05:59;;;;;;;7.57;4.43;;;;;;;;;;5028794;28;20037;-74
2023/08/05 02:08:25;;;;;;;9.13;4.35;;;;;;;;;;5014676;28;20025;-73
2023/08/05 02:10:51;;;;;;;10.52;4.50;;;;;;;;;;5035758;28;20044;-73
2023/08/05 02:13:17;;;;;;;8.05;4.50;;;;;;;;;;5033692;28;20033;-73
2023/08/05 02:15:43;;;;;;;6.70;4.28;;;;;;;;;;5035967;28;20070;-73
2023/08/05 02:18:09;;;;;;;8.07;4.90;;;;;;;;;;5071598;28;20086;-73
2023/08/05 02:20:35;;;;;;;9.45;4.63;;;;;;;;;;5070047;28;20041;-73
2023/08/05 02:23:02;;;;;;;9.27;5.05;;;;;;;;;;5066331;28;20406;-73
2023/08/05 02:25:29;;;;;;;8.60;4.53;;;;;;;;;;5051247;28;20033;-73
2023/08/05 02:27:55;;;;;;;6.72;4.13;;;;;;;;;;5071232;28;20414;-73
2023/08/05 02:30:21;;;;;;;6.50;4.15;;;;;;;;;;5038571;28;20033;-73
2023/08/05 02:32:47;;;;;;;12.25;4.47;;;;;;;;;;5033581;28;20137;-73
2023/08/05 02:35:13;;;;;;;6.88;4.78;;;;;;;;;;5045259;28;20032;-73
2023/08/05 02:38:52;;;;;;;8.85;4.55;;;;;;;;;;5036649;28;20095;-73
2023/08/05 03:05:11;;;;;;;8.23;4.72;;;;;;;;;;4951170;28;20041;-75
2023/08/05 03:12:40;;;;;;;;;;;;;;;;;;;;;
2023/08/05 03:20:50;;;;;;;10.70;5.57;;;;;;;;;;4837212;29;20053;-75
2023/08/05 03:28:11;;;;;;;10.10;5.00;;;;;;;;;;4730121;30;20091;-73
2023/08/05 03:42:46;;;;;;;16.58;5.85;;;;;;;;;;4873996;29;20048;-73
2023/08/05 03:45:13;;;;;;;7.72;5.50;;;;;;;;;;4842970;29;20135;-74
2023/08/05 03:47:39;;;;;;;11.23;5.60;;;;;;;;;;4944655;28;20038;-76
2023/08/05 03:50:08;;;;;;;13.75;5.20;;;;;;;;;;5029950;28;20178;-74
2023/08/05 03:52:34;;;;;;;11.98;5.07;;;;;;;;;;5028140;28;20033;-74
2023/08/05 03:55:01;;;;;;;13.50;5.20;;;;;;;;;;5030855;28;20029;-74
2023/08/05 03:57:28;;;;;;;13.50;5.72;;;;;;;;;;5035945;28;20032;-74
2023/08/05 03:59:56;;;;;;;10.73;4.53;;;;;;;;;;5053395;28;20530;-75
2023/08/05 04:02:22;;;;;;;12.15;5.13;;;;;;;;;;5043075;28;20040;-74
2023/08/05 04:04:50;;;;;;;12.45;5.03;;;;;;;;;;5050138;28;20040;-75
2023/08/05 04:07:19;;;;;;;14.15;5.28;;;;;;;;;;5067550;28;20025;-75
2023/08/05 04:09:48;;;;;;;15.02;7.05;;;;;;;;;;5034386;28;20083;-74
2023/08/05 04:12:15;;;;;;;15.30;5.35;;;;;;;;;;5053273;28;20028;-73
2023/08/05 04:14:43;;;;;;;24.10;5.47;;;;;;;;;;5052258;28;20035;-73
2023/08/05 04:17:14;;;;;;;11.50;5.18;;;;;;;;;;5034402;28;20078;-74
2023/08/05 04:19:42;;;;;;;15.02;5.35;;;;;;;;;;5034226;28;20040;-74
2023/08/05 04:22:08;;;;;;;9.15;4.90;;;;;;;;;;5034418;28;20025;-74
2023/08/05 04:24:35;;;;;;;10.75;4.97;;;;;;;;;;5034296;28;20031;-73
2023/08/05 04:27:03;;;;;;;16.73;5.20;;;;;;;;;;5033977;28;20143;-73
2023/08/05 04:29:29;;;;;;;8.35;4.85;;;;;;;;;;5034437;28;20037;-72
2023/08/05 04:31:55;;;;;;;10.85;5.30;;;;;;;;;;5034234;28;20056;-73
2023/08/05 04:34:22;;;;;;;6.93;4.40;;;;;;;;;;5051474;28;20075;-74
2023/08/05 04:36:50;;;;;;;9.70;4.40;;;;;;;;;;5051822;28;20425;-74
2023/08/05 04:39:18;;;;;;;11.00;5.10;;;;;;;;;;5052185;28;20033;-71
2023/08/05 04:41:45;;;;;;;10.00;5.55;;;;;;;;;;5052261;28;20021;-74
2023/08/05 04:44:11;;;;;;;12.70;5.13;;;;;;;;;;5052517;28;20029;-72
2023/08/05 04:46:37;;;;;;;11.82;5.43;;;;;;;;;;5052180;28;20025;-74
2023/08/05 04:49:05;;;;;;;16.98;5.50;;;;;;;;;;5051645;28;20033;-72
2023/08/05 04:51:31;;;;;;;15.35;5.60;;;;;;;;;;5051790;28;20048;-72
2023/08/05 04:53:57;;;;;;;9.52;4.90;;;;;;;;;;5017670;28;20044;-72
2023/08/05 04:56:24;;;;;;;9.63;4.28;;;;;;;;;;5052065;28;20012;-72
2023/08/05 04:58:51;;;;;;;10.50;4.78;;;;;;;;;;5052082;28;20036;-73
2023/08/05 05:01:17;;;;;;;8.10;4.57;;;;;;;;;;5052395;28;20029;-73
2023/08/05 05:03:48;;;;;;;9.20;4.45;;;;;;;;;;5051931;28;20111;-73
2023/08/05 05:06:15;;;;;;;7.35;4.40;;;;;;;;;;5053332;28;20021;-75
2023/08/05 05:08:40;;;;;;;8.02;4.60;;;;;;;;;;5038012;28;20041;-74
2023/08/05 05:11:10;;;;;;;7.10;4.13;;;;;;;;;;5055513;28;20132;-74
2023/08/05 05:13:38;;;;;;;11.82;4.45;;;;;;;;;;5055498;28;20521;-74
2023/08/05 05:16:04;;;;;;;11.30;4.32;;;;;;;;;;5055407;28;20533;-73
2023/08/05 05:18:30;;;;;;;9.07;4.03;;;;;;;;;;5055318;28;20032;-72
2023/08/05 05:20:56;;;;;;;7.07;3.97;;;;;;;;;;5055215;28;20124;-72
2023/08/05 05:23:22;;;;;;;8.35;4.25;;;;;;;;;;5055428;28;20028;-72
2023/08/05 05:25:48;;;;;;;8.32;4.30;;;;;;;;;;5054003;28;20509;-72
2023/08/05 05:28:14;;;;;;;10.15;4.40;;;;;;;;;;5054988;28;20146;-72
2023/08/05 05:30:40;;;;;;;14.02;4.30;;;;;;;;;;5054447;28;20113;-73
2023/08/05 05:33:07;;;;;;;7.38;3.90;;;;;;;;;;5037155;28;20031;-72
2023/08/05 05:35:33;;;;;;;5.93;4.47;;;;;;;;;;5054779;28;20020;-72
2023/08/05 05:37:59;;;;;;;8.77;4.10;;;;;;;;;;5036926;28;20111;-72
2023/08/05 05:40:25;;;;;;;8.07;4.07;;;;;;;;;;5054410;28;20036;-72
2023/08/05 05:42:51;;;;;;;5.88;3.95;;;;;;;;;;5054200;28;20481;-72
2023/08/05 05:45:17;;;;;;;6.75;4.15;;;;;;;;;;5054313;28;20048;-73
2023/08/05 05:47:44;;;;;;;7.43;4.03;;;;;;;;;;5054505;28;20017;-73
2023/08/05 05:50:11;;;;;;;8.00;4.32;;;;;;;;;;5052807;28;20036;-72
2023/08/05 05:52:37;;;;;;;8.75;4.10;;;;;;;;;;5049642;28;20024;-74
2023/08/05 05:55:03;;;;;;;5.60;4.10;;;;;;;;;;5053882;28;20111;-73
2023/08/05 05:57:29;;;;;;;5.30;3.97;;;;;;;;;;5054238;28;20017;-74
2023/08/05 05:59:58;;;;;;;9.52;4.00;;;;;;;;;;5054248;28;20029;-73
2023/08/05 06:02:24;;;;;;;6.45;4.10;;;;;;;;;;5054340;28;20021;-73
2023/08/05 06:04:51;;;;;;;7.60;4.10;;;;;;;;;;5054260;28;20025;-73
2023/08/05 06:07:16;;;;;;;7.88;4.07;;;;;;;;;;5054036;28;20025;-74
2023/08/05 06:09:42;;;;;;;8.45;4.13;;;;;;;;;;5054090;28;20498;-74
2023/08/05 06:12:10;;;;;;;7.90;4.10;;;;;;;;;;5053814;28;20043;-73
2023/08/05 06:14:36;;;;;;;5.90;4.15;;;;;;;;;;5054065;28;20056;-73
2023/08/05 06:17:03;;;;;;;7.82;3.95;;;;;;;;;;5035987;28;20017;-74
2023/08/05 06:19:32;;;;;;;7.78;4.30;;;;;;;;;;5053187;28;20060;-73
2023/08/05 06:22:01;;;;;;;5.55;4.03;;;;;;;;;;5054251;28;20469;-73
2023/08/05 06:24:27;;;;;;;5.25;3.85;;;;;;;;;;5054017;28;20111;-73
2023/08/05 06:27:09;;;;;;;6.75;3.70;;;;;;;;;;5053455;28;20017;-73
2023/08/05 06:29:38;;;;;;;5.57;3.95;;;;;;;;;;5047777;28;20079;-73
2023/08/05 06:32:13;;;;;;;5.38;3.83;;;;;;;;;;5050080;28;20112;-74
2023/08/05 06:34:42;;;;;;;7.70;4.13;;;;;;;;;;5052361;28;20045;-74
2023/08/05 06:37:08;;;;;;;8.07;4.28;;;;;;;;;;5052426;28;20044;-74
2023/08/05 06:39:37;;;;;;;4.97;3.70;;;;;;;;;;5035749;28;20441;-73
2023/08/05 06:42:06;;;;;;;6.22;3.92;;;;;;;;;;5052331;28;20025;-74
2023/08/05 06:44:37;;;;;;;7.75;4.05;;;;;;;;;;5026926;28;20033;-74
2023/08/05 06:47:05;;;;;;;6.30;3.88;;;;;;;;;;5053355;28;20029;-74
2023/08/05 06:49:32;;;;;;;5.43;3.95;;;;;;;;;;5053549;28;20516;-73
2023/08/05 06:51:58;;;;;;;5.80;3.95;;;;;;;;;;5053449;28;20398;-73
2023/08/05 06:54:27;;;;;;;9.85;4.15;;;;;;;;;;5035282;28;20394;-74
2023/08/05 06:56:54;;;;;;;7.88;4.43;;;;;;;;;;5053253;28;20387;-73
2023/08/05 06:59:20;;;;;;;7.43;4.07;;;;;;;;;;5019526;28;20492;-74
2023/08/05 07:01:46;;;;;;;7.50;4.28;;;;;;;;;;5053474;28;20372;-73
2023/08/05 07:04:14;;;;;;;10.70;4.82;;;;;;;;;;5055504;28;20379;-73
2023/08/05 07:06:41;;;;;;;10.00;4.80;;;;;;;;;;5055107;28;20025;-74
2023/08/05 07:09:07;;;;;;;7.75;3.90;;;;;;;;;;5053471;28;20419;-74
2023/08/05 07:11:35;;;;;;;7.68;3.63;;;;;;;;;;5035296;28;20032;-74
2023/08/05 07:14:04;;;;;;;7.47;3.88;;;;;;;;;;5052960;28;20032;-74
2023/08/05 07:16:30;;;;;;;8.38;4.10;;;;;;;;;;5053035;28;20474;-74
2023/08/05 07:18:56;;;;;;;11.35;4.82;;;;;;;;;;5052972;28;20067;-74
2023/08/05 07:21:22;;;;;;;6.80;4.38;;;;;;;;;;5052599;28;20464;-74
2023/08/05 07:23:50;;;;;;;8.68;4.43;;;;;;;;;;5035471;28;20392;-74
2023/08/05 07:26:16;;;;;;;7.70;3.60;;;;;;;;;;5053233;28;20065;-74
2023/08/05 07:28:43;;;;;;;7.43;3.78;;;;;;;;;;5053065;28;20064;-75
2023/08/05 07:31:10;;;;;;;5.03;3.80;;;;;;;;;;5035317;28;20495;-74
2023/08/05 07:33:37;;;;;;;4.90;3.75;;;;;;;;;;5052363;28;20402;-75
2023/08/05 07:36:11;;;;;;;6.68;3.70;;;;;;;;;;5050950;28;20513;-75
2023/08/05 07:38:42;;;;;;;8.75;4.07;;;;;;;;;;5060908;28;20498;-76
2023/08/05 07:41:09;;;;;;;;;;;;;;;;;;5035740;28;20585;-76
2023/08/05 07:43:37;;;;;;;7.15;4.03;;;;;;;;;;5052046;28;19978;-75
2023/08/05 07:46:05;;;;;;;6.68;4.35;;;;;;;;;;5051627;28;20517;-75
2023/08/05 07:48:37;;;;;;;8.55;3.78;;;;;;;;;;5025815;28;20025;-75
2023/08/05 07:51:06;;;;;;;5.80;3.60;;;;;;;;;;5052355;28;20502;-75
2023/08/05 07:53:35;;;;;;;6.38;3.50;;;;;;;;;;5034599;28;20509;-72
2023/08/05 07:56:11;;;;;;;6.93;4.28;;;;;;;;;;5052083;28;20029;-73
2023/08/05 07:58:40;;;;;;;6.25;3.58;;;;;;;;;;5044607;28;20064;-74
2023/08/05 08:01:07;;;;;;;7.00;4.18;;;;;;;;;;5052415;28;20040;-75
2023/08/05 08:03:33;;;;;;;10.18;4.32;;;;;;;;;;5052330;28;20490;-75
2023/08/05 08:06:00;;;;;;;6.88;4.10;;;;;;;;;;5052031;28;20036;-75
2023/08/05 08:08:26;;;;;;;8.15;4.22;;;;;;;;;;5052277;28;20068;-75
2023/08/05 08:10:53;;;;;;;5.00;3.88;;;;;;;;;;5034451;28;20075;-75
2023/08/05 08:13:19;;;;;;;9.18;4.18;;;;;;;;;;5052135;28;20036;-75
2023/08/05 08:15:45;;;;;;;7.32;4.03;;;;;;;;;;5034559;28;20108;-75
2023/08/05 08:18:11;;;;;;;7.18;4.32;;;;;;;;;;5052543;28;20067;-75
2023/08/05 08:20:37;;;;;;;8.38;3.90;;;;;;;;;;5052182;28;20536;-75
2023/08/05 08:23:03;;;;;;;12.95;4.05;;;;;;;;;;5052136;28;20064;-73
2023/08/05 08:25:29;;;;;;;6.05;4.57;;;;;;;;;;5051750;28;20080;-73
2023/08/05 08:27:56;;;;;;;9.70;4.35;;;;;;;;;;5052542;28;20060;-74
2023/08/05 08:30:22;;;;;;;6.75;4.00;;;;;;;;;;5052051;28;20498;-74
2023/08/05 08:32:48;;;;;;;5.75;4.03;;;;;;;;;;5052075;28;20028;-74
2023/08/05 08:35:14;;;;;;;8.55;3.50;;;;;;;;;;5051639;28;20032;-75
2023/08/05 08:37:40;;;;;;;6.40;3.90;;;;;;;;;;5051964;28;20570;-77
2023/08/05 08:40:07;;;;;;;5.15;3.75;;;;;;;;;;5051763;28;20111;-76
2023/08/05 08:42:34;;;;;;;6.53;4.10;;;;;;;;;;5054982;28;20063;-76
2023/08/05 08:45:01;;;;;;;7.00;4.30;;;;;;;;;;5055731;28;20115;-72
2023/08/05 08:47:27;;;;;;;5.97;4.38;;;;;;;;;;5055996;28;20115;-74
2023/08/05 08:49:55;;;;;;;6.22;4.03;;;;;;;;;;5055731;28;20078;-74
2023/08/05 08:52:22;;;;;;;9.65;4.05;;;;;;;;;;5055606;28;20037;-74
2023/08/05 08:54:51;;;;;;;7.25;4.22;;;;;;;;;;5055604;28;20032;-75
2023/08/05 08:57:18;;;;;;;7.50;4.25;;;;;;;;;;5055655;28;20028;-74
2023/08/05 08:59:44;;;;;;;9.60;4.10;;;;;;;;;;5038115;28;20044;-74
2023/08/05 09:02:12;;;;;;;7.97;4.65;;;;;;;;;;5055617;28;20039;-73
2023/08/05 09:04:41;;;;;;;10.77;4.40;;;;;;;;;;5055339;28;20017;-73
2023/08/05 09:07:08;;;;;;;7.13;4.78;;;;;;;;;;5055582;28;20033;-74
2023/08/05 09:09:34;;;;;;;7.20;4.50;;;;;;;;;;5037723;28;20140;-73
2023/08/05 09:12:02;;;;;;;11.32;4.63;;;;;;;;;;5055718;28;20036;-74
2023/08/05 09:14:28;;;;;;;15.00;5.18;;;;;;;;;;5054299;28;20029;-74
2023/08/05 09:16:59;;;;;;;8.98;4.63;;;;;;;;;;5055381;28;20033;-74
2023/08/05 09:19:28;;;;;;;6.15;4.20;;;;;;;;;;5055314;28;20036;-74
2023/08/05 09:21:55;;;;;;;5.90;3.80;;;;;;;;;;5055015;28;20039;-74
2023/08/05 09:24:25;;;;;;;10.32;4.70;;;;;;;;;;5055115;28;20060;-74
2023/08/05 09:27:09;;;;;;;7.80;4.47;;;;;;;;;;5054920;28;20087;-74
2023/08/05 09:29:38;;;;;;;10.40;5.10;;;;;;;;;;5054991;28;20037;-74
2023/08/05 09:32:05;;;;;;;5.93;3.90;;;;;;;;;;5054953;28;20020;-75
2023/08/05 09:34:39;;;;;;;6.43;3.83;;;;;;;;;;5054757;28;20036;-75
2023/08/05 09:37:09;;;;;;;6.72;3.88;;;;;;;;;;5037166;28;20397;-74
2023/08/05 09:39:47;;;;;;;7.17;4.57;;;;;;;;;;5054838;28;20028;-73
2023/08/05 09:42:28;;;;;;;7.38;4.13;;;;;;;;;;5050956;28;20032;-72
2023/08/05 09:45:01;;;;;;;6.38;3.97;;;;;;;;;;5054556;28;20032;-73
2023/08/05 09:47:31;;;;;;;7.20;4.00;;;;;;;;;;5053582;28;20029;-73
2023/08/05 09:50:03;;;;;;;8.30;4.00;;;;;;;;;;5054804;28;20037;-73
2023/08/05 09:52:33;;;;;;;5.15;4.13;;;;;;;;;;5054397;28;20035;-73
2023/08/05 09:55:07;;;;;;;7.38;4.35;;;;;;;;;;5054382;28;20036;-75
2023/08/05 09:57:43;;;;;;;5.22;4.20;;;;;;;;;;5054726;28;20458;-73
2023/08/05 10:00:23;;;;;;;6.28;4.15;;;;;;;;;;5054117;28;20041;-73
2023/08/05 10:02:50;;;;;;;8.27;4.43;;;;;;;;;;5021965;28;20540;-72
2023/08/05 10:05:16;;;;;;;7.28;4.00;;;;;;;;;;5035716;28;20021;-73
2023/08/05 10:07:53;;;;;;;4.68;4.05;;;;;;;;;;5053881;28;20029;-74
2023/08/05 10:10:22;;;;;;;8.40;4.28;;;;;;;;;;5052530;28;20072;-73
2023/08/05 10:13:08;;;;;;;7.90;4.15;;;;;;;;;;5053980;28;20040;-74
2023/08/05 10:15:41;;;;;;;5.18;3.97;;;;;;;;;;5054045;28;20112;-73
2023/08/05 10:18:10;;;;;;;8.48;4.13;;;;;;;;;;5035951;28;20029;-74
2023/08/05 10:20:37;;;;;;;6.45;4.00;;;;;;;;;;5053883;28;20116;-75
2023/08/05 10:23:06;;;;;;;6.45;4.28;;;;;;;;;;5054069;28;20060;-73
2023/08/05 10:25:57;;;;;;;8.18;4.65;;;;;;;;;;5053758;28;20104;-73
2023/08/05 10:28:23;;;;;;;10.13;4.68;;;;;;;;;;5049864;28;20110;-74
2023/08/05 10:30:50;;;;;;;6.72;4.30;;;;;;;;;;5053834;28;20109;-74
2023/08/05 10:33:16;;;;;;;5.28;4.20;;;;;;;;;;5036258;28;20049;-74
2023/08/05 10:35:43;;;;;;;6.68;3.80;;;;;;;;;;5053501;28;20028;-74
2023/08/05 10:38:20;;;;;;;6.43;3.65;;;;;;;;;;5052975;28;20044;-75
2023/08/05 10:41:00;;;;;;;5.28;3.83;;;;;;;;;;5052277;28;20044;-75
2023/08/05 10:43:30;;;;;;;7.68;3.97;;;;;;;;;;5052792;28;20090;-74
2023/08/05 10:46:17;;;;;;;6.38;3.85;;;;;;;;;;5045829;28;20111;-74
2023/08/05 10:48:50;;;;;;;10.38;3.97;;;;;;;;;;5052249;28;20036;-74
2023/08/05 10:51:18;;;;;;;5.85;4.43;;;;;;;;;;5053470;28;20028;-74
2023/08/05 10:53:58;;;;;;;6.55;4.13;;;;;;;;;;5035783;28;20425;-73
2023/08/05 10:56:34;;;;;;;5.80;4.28;;;;;;;;;;5052205;28;20033;-73
2023/08/05 10:59:02;;;;;;;6.18;4.00;;;;;;;;;;5053253;28;20037;-73
2023/08/05 11:01:54;;;;;;;7.60;4.03;;;;;;;;;;5053376;28;20025;-73
2023/08/05 11:04:31;;;;;;;8.25;4.28;;;;;;;;;;5052698;28;20036;-73
2023/08/05 11:07:00;;;;;;;5.47;4.40;;;;;;;;;;5053206;28;20072;-73
2023/08/05 11:09:33;;;;;;;5.00;4.05;;;;;;;;;;5052809;28;20017;-73
2023/08/05 11:12:00;;;;;;;5.47;3.90;;;;;;;;;;5052901;28;20029;-73
2023/08/05 11:14:28;;;;;;;5.57;3.92;;;;;;;;;;5052199;28;20036;-75
2023/08/05 11:17:02;;;;;;;5.57;3.70;;;;;;;;;;5052242;28;20108;-76
2023/08/05 11:19:28;;;;;;;7.50;4.38;;;;;;;;;;5053090;28;20071;-75
2023/08/05 11:21:55;;;;;;;6.82;3.45;;;;;;;;;;5034847;28;20029;-73
2023/08/05 11:24:21;;;;;;;4.53;3.85;;;;;;;;;;5052631;28;20040;-74
2023/08/05 11:26:47;;;;;;;7.20;3.80;;;;;;;;;;5052410;28;20442;-74
2023/08/05 11:29:16;;;;;;;7.70;4.13;;;;;;;;;;5052592;28;20171;-74
2023/08/05 11:31:51;;;;;;;7.40;3.55;;;;;;;;;;5052587;28;20112;-74
2023/08/05 11:34:25;;;;;;;6.22;4.30;;;;;;;;;;5052463;28;20036;-73
2023/08/05 11:36:57;;;;;;;6.82;3.70;;;;;;;;;;5052826;28;20029;-74
2023/08/05 11:39:24;;;;;;;5.53;3.90;;;;;;;;;;5052481;28;20511;-75
2023/08/05 11:41:51;;;;;;;6.85;3.80;;;;;;;;;;5052921;28;20398;-75
2023/08/05 11:44:18;;;;;;;6.43;4.00;;;;;;;;;;5052542;28;20116;-75
2023/08/05 11:46:43;;;;;;;5.07;3.60;;;;;;;;;;5034623;28;20025;-75
2023/08/05 11:49:13;;;;;;;5.32;3.90;;;;;;;;;;5052052;28;20029;-75
2023/08/05 11:51:52;;;;;;;5.70;3.85;;;;;;;;;;5050362;28;20037;-75
2023/08/05 11:54:32;;;;;;;6.38;4.00;;;;;;;;;;5052298;28;20056;-75
2023/08/05 11:56:59;;;;;;;8.27;3.85;;;;;;;;;;5052244;28;20040;-74
2023/08/05 11:59:47;;;;;;;6.60;3.83;;;;;;;;;;5051044;28;20060;-74
2023/08/05 12:02:17;;;;;;;5.18;3.60;;;;;;;;;;5051991;28;20398;-72
2023/08/05 12:04:48;;;;;;;5.70;3.58;;;;;;;;;;5051477;28;20059;-73
2023/08/05 12:07:15;;;;;;;6.18;4.38;;;;;;;;;;5051854;28;20126;-73
2023/08/05 12:09:41;;;;;;;6.50;4.22;;;;;;;;;;5052091;28;20033;-73
2023/08/05 12:12:14;;;;;;;12.80;4.63;;;;;;;;;;5051627;28;20334;-73
2023/08/05 12:14:40;;;;;;;5.55;3.85;;;;;;;;;;5033055;28;20402;-72
2023/08/05 12:17:06;;;;;;;7.72;4.20;;;;;;;;;;5049226;28;20021;-73
2023/08/05 12:19:32;;;;;;;7.90;4.25;;;;;;;;;;5051406;28;20447;-72
2023/08/05 12:21:58;;;;;;;6.93;3.78;;;;;;;;;;5051652;28;20104;-73
2023/08/05 12:24:24;;;;;;;9.98;4.53;;;;;;;;;;5033913;28;20079;-73
2023/08/05 12:26:50;;;;;;;6.03;3.80;;;;;;;;;;5051709;28;20029;-73
2023/08/05 12:29:16;;;;;;;6.95;3.95;;;;;;;;;;5051464;28;20112;-72
2023/08/05 12:31:41;;;;;;;5.47;3.97;;;;;;;;;;5051994;28;20538;-73
2023/08/05 12:34:07;;;;;;;10.52;4.18;;;;;;;;;;5051071;28;20071;-72
2023/08/05 12:36:33;;;;;;;6.45;3.90;;;;;;;;;;5051289;28;20017;-72
2023/08/05 12:39:00;;;;;;;6.13;4.00;;;;;;;;;;5051662;28;20127;-74
2023/08/05 12:41:26;;;;;;;7.22;4.55;;;;;;;;;;5051593;28;20024;-74
2023/08/05 12:43:52;;;;;;;7.95;4.22;;;;;;;;;;5051407;28;20464;-74
2023/08/05 12:46:19;;;;;;;8.70;4.00;;;;;;;;;;5066568;28;20368;-73
2023/08/05 12:48:44;;;;;;;5.10;3.50;;;;;;;;;;5033894;28;20550;-73
2023/08/05 12:51:10;;;;;;;5.78;4.07;;;;;;;;;;5051399;28;20060;-73
2023/08/05 12:53:37;;;;;;;6.43;4.25;;;;;;;;;;5051449;28;20033;-73
2023/08/05 12:56:03;;;;;;;7.07;4.57;;;;;;;;;;5051552;28;20021;-73
2023/08/05 12:58:29;;;;;;;6.07;4.13;;;;;;;;;;5050830;28;20116;-74
2023/08/05 13:00:55;;;;;;;6.10;3.72;;;;;;;;;;5033155;28;20105;-72
2023/08/05 13:03:20;;;;;;;9.30;4.72;;;;;;;;;;5051449;28;20445;-73
2023/08/05 13:05:46;;;;;;;8.32;4.30;;;;;;;;;;5033157;28;20025;-73
2023/08/05 13:08:12;;;;;;;5.18;4.07;;;;;;;;;;5050005;28;20058;-74
2023/08/05 13:10:42;;;;;;;7.13;4.13;;;;;;;;;;5050950;28;20028;-72
2023/08/05 13:13:07;;;;;;;7.00;4.05;;;;;;;;;;5031059;28;20521;-72
2023/08/05 13:15:33;;;;;;;8.23;4.10;;;;;;;;;;5031560;28;20025;-74
2023/08/05 13:17:59;;;;;;;6.50;3.90;;;;;;;;;;5031431;28;20033;-73
2023/08/05 13:20:25;;;;;;;11.88;4.07;;;;;;;;;;5031471;28;20041;-71
2023/08/05 13:22:51;;;;;;;11.73;4.32;;;;;;;;;;5031316;28;20423;-72
2023/08/05 13:25:17;;;;;;;7.07;3.95;;;;;;;;;;5028225;28;20079;-73
2023/08/05 13:27:42;;;;;;;6.43;4.43;;;;;;;;;;5052564;28;20094;-72
2023/08/05 13:30:08;;;;;;;5.03;3.90;;;;;;;;;;5054784;28;20629;-72
2023/08/05 13:32:34;;;;;;;5.88;4.32;;;;;;;;;;5054805;28;20029;-72
2023/08/05 13:34:59;;;;;;;8.30;4.60;;;;;;;;;;5054411;28;20036;-72
2023/08/05 13:37:25;;;;;;;7.05;4.53;;;;;;;;;;5054166;28;20025;-68
2023/08/05 13:39:51;;;;;;;9.40;4.50;;;;;;;;;;5054384;28;20063;-68
2023/08/05 13:42:17;;;;;;;6.07;3.92;;;;;;;;;;5054402;28;20139;-69
2023/08/05 13:44:42;;;;;;;7.93;4.30;;;;;;;;;;5054494;28;20028;-68
2023/08/05 13:47:08;;;;;;;11.40;5.18;;;;;;;;;;5054567;28;20037;-67
2023/08/05 13:49:34;;;;;;;9.10;4.00;;;;;;;;;;5054062;28;20067;-67
2023/08/05 13:52:00;;;;;;;10.82;4.30;;;;;;;;;;5036615;28;20057;-66
2023/08/05 13:54:25;;;;;;;5.90;3.95;;;;;;;;;;5054295;28;20393;-66
2023/08/05 13:56:51;;;;;;;5.85;3.90;;;;;;;;;;5054120;28;20029;-67
2023/08/05 13:59:17;;;;;;;8.85;4.22;;;;;;;;;;5054312;28;20493;-67
2023/08/05 14:01:44;;;;;;;11.65;4.93;;;;;;;;;;5053760;28;20028;-66
2023/08/05 14:04:10;;;;;;;9.65;4.32;;;;;;;;;;5036042;28;20025;-66
2023/08/05 14:06:36;;;;;;;10.40;4.28;;;;;;;;;;5053875;28;20051;-67
2023/08/05 14:09:07;;;;;;;6.43;4.10;;;;;;;;;;5035926;28;20021;-67
2023/08/05 14:11:34;;;;;;;5.20;3.90;;;;;;;;;;5053898;28;20056;-68
2023/08/05 14:14:00;;;;;;;12.13;4.70;;;;;;;;;;5054066;28;20021;-68
2023/08/05 14:16:26;;;;;;;13.35;5.05;;;;;;;;;;5053614;28;20067;-68
2023/08/05 14:18:51;;;;;;;10.93;4.30;;;;;;;;;;5053917;28;20083;-68
2023/08/05 14:21:17;;;;;;;7.63;4.57;;;;;;;;;;5053922;28;20502;-68
2023/08/05 14:23:43;;;;;;;8.57;4.30;;;;;;;;;;5035769;28;20031;-68
2023/08/05 14:26:08;;;;;;;7.53;4.50;;;;;;;;;;5052313;28;20116;-67
2023/08/05 14:28:34;;;;;;;8.10;4.57;;;;;;;;;;5053387;28;20583;-67
2023/08/05 14:31:06;;;;;;;6.82;4.50;;;;;;;;;;5053833;28;20079;-68
2023/08/05 14:33:32;;;;;;;12.13;4.13;;;;;;;;;;5053862;28;20033;-67
2023/08/05 14:35:57;;;;;;;9.38;4.60;;;;;;;;;;5053559;28;20037;-66
2023/08/05 14:38:23;;;;;;;8.73;4.65;;;;;;;;;;5052826;28;20096;-67
2023/08/05 14:40:49;;;;;;;8.45;4.85;;;;;;;;;;5053474;28;20031;-67
2023/08/05 14:43:14;;;;;;;11.85;4.78;;;;;;;;;;5054088;28;20037;-67
2023/08/05 14:45:40;;;;;;;7.15;4.18;;;;;;;;;;5053826;28;20055;-67
2023/08/05 14:48:06;;;;;;;9.70;5.18;;;;;;;;;;5053868;28;20032;-67
2023/08/05 14:50:38;;;;;;;9.23;5.10;;;;;;;;;;5053767;28;20032;-67
2023/08/05 14:53:04;;;;;;;6.70;4.70;;;;;;;;;;5053271;28;20083;-68
2023/08/05 14:55:30;;;;;;;6.18;4.50;;;;;;;;;;5053487;28;20024;-70
2023/08/05 14:57:56;;;;;;;9.73;4.80;;;;;;;;;;5051849;28;20572;-68
2023/08/05 15:00:24;;;;;;;7.88;4.60;;;;;;;;;;5052322;28;20519;-66
2023/08/05 15:02:53;;;;;;;7.45;4.43;;;;;;;;;;5052909;28;20052;-67
2023/08/05 15:05:18;;;;;;;11.68;4.78;;;;;;;;;;5052751;28;20025;-67
2023/08/05 15:07:44;;;;;;;7.57;4.80;;;;;;;;;;5052757;28;20565;-68
2023/08/05 15:10:10;;;;;;;9.90;5.13;;;;;;;;;;5052972;28;20043;-67
2023/08/05 15:12:36;;;;;;;8.50;5.40;;;;;;;;;;5052873;28;20475;-68
2023/08/05 15:15:03;;;;;;;6.78;4.97;;;;;;;;;;5053121;28;20036;-67
2023/08/05 15:17:29;;;;;;;5.80;4.80;;;;;;;;;;5052946;28;20124;-68
2023/08/05 15:19:55;;;;;;;7.40;5.00;;;;;;;;;;5052888;28;20025;-69
2023/08/05 15:22:21;;;;;;;10.23;5.10;;;;;;;;;;5052258;28;20104;-67
2023/08/05 15:24:47;;;;;;;7.88;4.85;;;;;;;;;;5052305;28;20021;-67
2023/08/05 15:27:13;;;;;;;8.07;5.03;;;;;;;;;;5052013;28;20033;-70
2023/08/05 15:29:38;;;;;;;9.25;5.63;;;;;;;;;;5052303;28;20478;-68
2023/08/05 15:32:05;;;;;;;12.45;4.90;;;;;;;;;;5052510;28;20040;-68
2023/08/05 15:34:31;;;;;;;8.88;4.53;;;;;;;;;;5052597;28;20082;-68
2023/08/05 15:36:59;;;;;;;7.25;4.93;;;;;;;;;;5034695;28;20498;-68
2023/08/05 15:39:29;;;;;;;8.77;4.43;;;;;;;;;;5052556;28;20021;-68
2023/08/05 15:41:55;;;;;;;7.70;5.63;;;;;;;;;;5052761;28;20027;-68
2023/08/05 15:44:21;;;;;;;9.93;4.93;;;;;;;;;;5052378;28;20116;-68
2023/08/05 15:46:47;;;;;;;9.68;5.40;;;;;;;;;;5052657;28;20387;-67
2023/08/05 15:49:13;;;;;;;10.40;5.70;;;;;;;;;;5052249;28;20115;-68
2023/08/05 15:51:39;;;;;;;12.18;5.43;;;;;;;;;;5052551;28;20371;-69
2023/08/05 15:54:05;;;;;;;8.23;5.28;;;;;;;;;;5034554;28;20017;-68
2023/08/05 15:56:31;;;;;;;6.65;5.00;;;;;;;;;;5052839;28;20025;-68
2023/08/05 15:58:56;;;;;;;8.93;5.47;;;;;;;;;;5052769;28;20051;-68
2023/08/05 16:01:22;;;;;;;7.93;5.82;;;;;;;;;;5052484;28;20418;-68
2023/08/05 16:03:48;;;;;;;16.58;6.47;;;;;;;;;;5051991;28;20052;-67
2023/08/05 16:06:14;;;;;;;10.02;6.03;;;;;;;;;;5052468;28;20037;-69
2023/08/05 16:08:39;;;;;;;10.20;5.70;;;;;;;;;;5052125;28;20025;-69
2023/08/05 16:11:07;;;;;;;12.95;6.03;;;;;;;;;;5052593;28;20041;-71
2023/08/05 16:13:34;;;;;;;9.77;5.97;;;;;;;;;;5052063;28;20078;-69
2023/08/05 16:16:12;;;;;;;11.85;5.63;;;;;;;;;;5052122;28;20044;-69
2023/08/05 16:18:39;;;;;;;11.35;6.13;;;;;;;;;;5052171;28;20492;-70
2023/08/05 16:21:12;;;;;;;7.97;6.32;;;;;;;;;;5034563;28;20448;-70
2023/08/05 16:23:39;;;;;;;10.82;6.43;;;;;;;;;;5052051;28;20036;-70
2023/08/05 16:26:15;;;;;;;9.32;6.30;;;;;;;;;;5052168;28;20021;-69
2023/08/05 16:28:41;;;;;;;12.48;5.80;;;;;;;;;;5051876;28;20047;-70
2023/08/05 16:31:08;;;;;;;11.48;6.32;;;;;;;;;;5051493;28;20122;-68